Time;durP1;ratioP1;P1;durP2;ratioP2;P2;SDS_P1;SDS_P2;PMS_P1;PMS_P2;Temp;Humidity;BMP_temperature;BMP_pressure;BME280_temperature;BME280_humidity;BME280_pressure;Samples;Min_cycle;Max_cycle;Signal;HPM_P1;HPM_P2
2021/12/02 00:02:22;;;;;;;1.90;1.70;;;4.90;99.90;;;5.58;100.00;96419.72;5026367;28;20846;-80
2021/12/02 00:04:51;;;;;;;2.63;1.50;;;4.90;99.90;;;5.59;100.00;96421.28;5033716;28;20636;-79
2021/12/02 00:07:19;;;;;;;3.17;1.90;;;4.90;99.90;;;5.59;100.00;96410.91;5039787;28;20450;-79
2021/12/02 00:09:48;;;;;;;2.53;1.63;;;4.90;99.90;;;5.58;100.00;96419.72;5029684;28;20478;-79
2021/12/02 00:12:17;;;;;;;3.20;1.57;;;4.90;99.90;;;5.57;100.00;96420.69;5027287;28;20537;-79
2021/12/02 00:14:47;;;;;;;3.00;1.83;;;4.90;99.90;;;5.55;100.00;96420.06;5030149;28;20523;-79
2021/12/02 00:17:21;;;;;;;3.50;1.77;;;5.00;99.90;;;5.51;100.00;96418.88;5039046;28;20475;-79
2021/12/02 00:23:21;;;;;;;2.80;1.30;;;4.90;99.90;;;5.51;100.00;96426.66;5035825;28;20466;-79
2021/12/02 00:25:54;;;;;;;3.13;1.43;;;4.90;99.90;;;5.50;100.00;96417.28;5032253;28;20826;-80
2021/12/02 00:28:24;;;;;;;2.63;1.67;;;4.80;99.90;;;5.49;100.00;96426.03;5026023;28;20520;-79
2021/12/02 00:30:55;;;;;;;2.80;1.50;;;4.80;99.90;;;5.51;100.00;96418.88;5029500;28;20553;-80
2021/12/02 00:33:27;;;;;;;5.27;1.70;;;4.90;99.90;;;5.51;100.00;96405.94;5025003;28;20492;-80
2021/12/02 00:35:56;;;;;;;3.60;1.37;;;4.80;99.90;;;5.52;100.00;96409.28;5026988;28;20512;-80
2021/12/02 00:38:27;;;;;;;2.60;1.50;;;4.80;99.90;;;5.51;100.00;96416.28;5038730;28;20458;-79
2021/12/02 00:40:55;;;;;;;3.37;1.47;;;5.00;99.90;;;5.48;100.00;96419.25;5025104;28;20912;-79
2021/12/02 00:43:24;;;;;;;4.73;1.53;;;4.80;99.90;;;5.51;100.00;96418.88;5037403;28;20542;-80
2021/12/02 00:45:52;;;;;;;3.47;1.80;;;4.90;99.90;;;5.51;100.00;96412.91;5033067;28;20523;-79
2021/12/02 00:48:21;;;;;;;3.97;1.73;;;4.90;99.90;;;5.50;100.00;96417.28;5030344;28;20552;-79
2021/12/02 00:50:51;;;;;;;3.47;1.43;;;4.90;99.90;;;5.54;100.00;96420.28;5026005;28;20463;-79
2021/12/02 00:53:22;;;;;;;1.40;1.30;;;4.90;99.90;;;5.55;100.00;96417.47;5028690;28;20879;-79
2021/12/02 00:55:53;;;;;;;7.17;2.30;;;4.90;99.90;;;5.56;100.00;96410.50;5022055;28;20455;-79
2021/12/02 00:58:23;;;;;;;3.93;1.57;;;4.90;99.90;;;5.54;100.00;96397.75;5019928;28;20512;-79
2021/12/02 01:00:53;;;;;;;1.70;1.40;;;5.00;99.90;;;5.53;100.00;96406.53;5023118;28;20987;-80
2021/12/02 01:03:23;;;;;;;4.63;1.50;;;5.00;99.90;;;5.53;100.00;96405.72;5021183;28;20490;-79
2021/12/02 01:05:53;;;;;;;1.67;1.20;;;4.90;99.90;;;5.51;100.00;96411.13;5025880;28;20464;-79
2021/12/02 01:08:22;;;;;;;1.73;1.20;;;5.00;99.90;;;5.50;100.00;96406.91;5018847;28;21041;-79
2021/12/02 01:10:50;;;;;;;2.17;1.83;;;4.90;99.90;;;5.51;100.00;96407.72;5012381;28;20471;-79
2021/12/02 01:13:19;;;;;;;4.73;1.50;;;4.90;99.90;;;5.48;100.00;96403.69;5018333;28;20466;-80
2021/12/02 01:15:48;;;;;;;1.33;1.10;;;4.80;99.90;;;5.47;100.00;96402.13;5026395;28;20587;-79
2021/12/02 01:18:17;;;;;;;1.93;1.30;;;4.90;99.90;;;5.44;100.00;96397.34;5028449;28;20462;-80
2021/12/02 01:20:49;;;;;;;1.63;1.40;;;4.80;99.90;;;5.45;100.00;96393.72;5028931;28;20466;-80
2021/12/02 01:23:22;;;;;;;4.93;1.43;;;4.80;99.90;;;5.47;100.00;96399.53;5030589;28;20517;-80
2021/12/02 01:25:58;;;;;;;4.23;1.30;;;4.80;99.90;;;5.47;100.00;96396.94;5022525;28;20459;-79
2021/12/02 01:28:27;;;;;;;2.60;1.37;;;4.70;99.90;;;5.45;100.00;96390.34;5026872;28;20466;-79
2021/12/02 01:30:56;;;;;;;2.80;1.60;;;4.70;99.90;;;5.46;100.00;96400.50;5028041;28;20462;-80
2021/12/02 01:33:27;;;;;;;4.10;1.50;;;4.80;99.90;;;5.43;100.00;96395.72;5031753;28;20978;-80
2021/12/02 01:35:59;;;;;;;3.03;1.30;;;4.80;99.90;;;5.44;100.00;96397.34;5026292;28;20466;-80
2021/12/02 01:38:31;;;;;;;3.63;1.40;;;4.80;99.90;;;5.44;100.00;96396.53;5033876;28;20911;-80
2021/12/02 01:41:02;;;;;;;1.30;1.20;;;4.70;99.90;;;5.44;100.00;96392.16;5027177;28;20828;-79
2021/12/02 01:43:49;;;;;;;1.50;1.40;;;4.70;99.90;;;5.47;100.00;96391.75;5027324;28;20467;-79
2021/12/02 01:46:21;;;;;;;2.50;1.40;;;4.70;99.90;;;5.49;100.00;96404.50;5027529;28;20478;-79
2021/12/02 01:49:01;;;;;;;3.87;1.50;;;4.90;99.90;;;5.47;100.00;96399.53;5024247;28;20468;-80
2021/12/02 01:51:31;;;;;;;5.47;1.90;;;4.90;99.90;;;5.47;100.00;96402.13;5022965;28;20525;-79
2021/12/02 01:54:08;;;;;;;2.63;1.60;;;4.90;99.90;;;5.49;100.00;96400.13;5028195;28;20532;-79
2021/12/02 01:56:44;;;;;;;4.43;1.50;;;4.90;99.90;;;5.52;100.00;96404.91;5011870;28;20463;-79
2021/12/02 01:59:17;;;;;;;4.53;1.67;;;4.90;99.90;;;5.51;100.00;96405.94;5022670;28;20464;-80
2021/12/02 02:01:50;;;;;;;2.30;1.50;;;4.90;99.90;;;5.54;100.00;96407.31;5013534;28;20455;-79
2021/12/02 02:04:21;;;;;;;2.90;1.77;;;4.90;99.90;;;5.59;100.00;96415.28;5021288;28;20505;-80
2021/12/02 02:06:58;;;;;;;3.17;1.83;;;5.00;99.90;;;5.59;100.00;96415.28;5020724;28;20977;-80
2021/12/02 02:09:33;;;;;;;2.03;1.50;;;5.00;99.90;;;5.62;100.00;96414.94;5011710;28;20962;-79
2021/12/02 02:12:05;;;;;;;1.83;1.67;;;5.00;99.90;;;5.66;100.00;96421.28;5029350;28;20474;-79
2021/12/02 02:14:34;;;;;;;3.07;1.40;;;5.00;99.90;;;5.68;100.00;96416.72;5024213;28;20458;-80
2021/12/02 02:17:10;;;;;;;2.50;1.50;;;5.00;99.90;;;5.67;100.00;96419.50;5022559;28;20508;-80
2021/12/02 02:19:38;;;;;;;1.80;1.50;;;5.00;99.90;;;5.67;100.00;96420.31;5026669;28;20515;-79
2021/12/02 02:22:08;;;;;;;6.00;2.27;;;5.00;99.90;;;5.72;100.00;96419.72;5028062;28;20458;-80
2021/12/02 02:24:37;;;;;;;5.03;1.80;;;5.20;99.90;;;5.72;100.00;96432.69;5030340;28;20646;-79
2021/12/02 02:27:06;;;;;;;2.10;1.50;;;5.10;99.90;;;5.73;100.00;96421.31;5031440;28;20441;-79
2021/12/02 02:29:34;;;;;;;2.97;1.40;;;5.10;99.90;;;5.75;100.00;96414.16;5018999;28;20899;-80
2021/12/02 02:32:05;;;;;;;2.20;1.30;;;5.20;99.90;;;5.72;100.00;96423.13;5032546;28;20863;-79
2021/12/02 02:34:34;;;;;;;5.13;1.20;;;5.20;99.90;;;5.71;100.00;96418.13;5022161;28;20460;-80
2021/12/02 02:37:04;;;;;;;3.70;1.20;;;5.20;99.90;;;5.75;100.00;96404.56;5028995;28;20455;-80
2021/12/02 02:39:36;;;;;;;4.87;1.73;;;5.20;99.90;;;5.78;100.00;96411.16;5020106;28;20541;-79
2021/12/02 02:42:08;;;;;;;1.17;1.07;;;5.30;99.90;;;5.82;100.00;96414.94;5020706;28;20467;-80
2021/12/02 02:44:38;;;;;;;1.30;1.20;;;5.20;99.90;;;5.84;100.00;96418.94;5027674;28;20836;-80
2021/12/02 02:47:07;;;;;;;5.83;1.40;;;5.30;99.90;;;5.84;100.00;96411.16;5017895;28;20490;-79
2021/12/02 02:49:35;;;;;;;3.50;1.30;;;5.30;99.90;;;5.85;100.00;96420.53;5022629;28;20463;-80
2021/12/02 02:52:05;;;;;;;1.33;1.20;;;5.30;99.90;;;5.86;100.00;96418.78;5020403;28;20513;-80
2021/12/02 02:54:34;;;;;;;1.87;1.23;;;5.20;99.90;;;5.89;100.00;96415.78;5027410;28;20457;-80
2021/12/02 02:57:05;;;;;;;3.03;1.27;;;5.30;99.90;;;5.89;100.00;96408.00;5024322;28;20909;-79
2021/12/02 02:59:53;;;;;;;4.20;1.20;;;5.30;99.90;;;5.91;100.00;96406.81;5022582;28;20461;-80
2021/12/02 03:02:26;;;;;;;2.00;1.00;;;5.30;99.90;;;5.83;100.00;96408.78;5027534;28;20551;-79
2021/12/02 03:05:01;;;;;;;1.20;1.10;;;5.20;99.90;;;5.86;100.00;96416.19;5026903;28;20490;-79
2021/12/02 03:07:35;;;;;;;1.10;0.90;;;5.20;99.90;;;5.88;100.00;96409.81;5018289;28;20521;-80
2021/12/02 03:10:13;;;;;;;1.67;1.10;;;5.30;99.90;;;5.90;100.00;96404.44;5023798;28;20989;-80
2021/12/02 03:12:53;;;;;;;1.57;1.10;;;5.30;99.90;;;5.89;100.00;96410.59;5026224;28;20919;-80
2021/12/02 03:18:10;;;;;;;3.03;1.13;;;5.40;99.90;;;5.89;100.00;96406.22;5020507;28;20486;-79
2021/12/02 03:20:39;;;;;;;1.83;0.97;;;5.30;99.90;;;5.88;100.00;96402.03;5028331;28;20811;-79
2021/12/02 03:23:08;;;;;;;8.67;1.20;;;5.30;99.90;;;5.89;100.00;96413.19;5023349;28;20522;-79
2021/12/02 03:25:37;;;;;;;2.23;1.10;;;5.20;99.90;;;5.88;100.00;96409.81;5024803;28;20498;-79
2021/12/02 03:28:06;;;;;;;3.17;1.17;;;5.30;99.90;;;5.89;100.00;96418.38;5025725;28;20446;-79
2021/12/02 03:30:37;;;;;;;1.30;1.00;;;5.10;99.90;;;5.89;100.00;96418.38;5026904;28;20442;-79
2021/12/02 03:33:05;;;;;;;2.30;1.27;;;5.10;99.90;;;5.88;100.00;96419.38;5028859;28;20446;-79
2021/12/02 03:35:34;;;;;;;2.90;1.07;;;5.10;99.90;;;5.88;100.00;96416.78;5025678;28;20940;-80
2021/12/02 03:38:16;;;;;;;5.80;1.30;;;5.20;99.90;;;5.88;100.00;96427.97;5031367;28;20456;-79
2021/12/02 03:40:46;;;;;;;2.03;1.13;;;5.30;99.90;;;5.86;100.00;96427.38;5020478;28;20443;-79
2021/12/02 03:43:15;;;;;;;3.37;1.10;;;5.30;99.90;;;5.81;100.00;96436.69;5027777;28;20453;-80
2021/12/02 03:45:50;;;;;;;11.13;1.07;;;5.40;99.90;;;5.80;100.00;96422.13;5026999;28;20503;-79
2021/12/02 03:48:19;;;;;;;2.07;1.17;;;5.40;99.90;;;5.81;100.00;96423.72;5025921;28;20454;-79
2021/12/02 03:50:47;;;;;;;1.63;1.00;;;5.40;99.90;;;5.79;100.00;96423.94;5022518;28;20442;-80
2021/12/02 03:53:16;;;;;;;0.90;0.90;;;5.30;99.90;;;5.76;100.00;96426.13;5028062;28;20505;-79
2021/12/02 03:55:46;;;;;;;1.03;0.90;;;5.30;99.90;;;5.78;100.00;96432.69;5023818;28;20485;-80
2021/12/02 03:58:15;;;;;;;2.50;1.00;;;5.30;99.90;;;5.75;100.00;96424.53;5023560;28;20472;-80
2021/12/02 04:00:44;;;;;;;1.30;0.90;;;5.30;99.90;;;5.69;100.00;96430.50;5017343;28;20447;-80
2021/12/02 04:03:13;;;;;;;0.80;0.80;;;5.30;99.90;;;5.59;100.00;96416.09;5022515;28;20446;-80
2021/12/02 04:05:41;;;;;;;1.13;0.80;;;5.30;99.90;;;5.56;100.00;96415.69;5028222;28;20502;-80
2021/12/02 04:08:11;;;;;;;4.93;0.90;;;5.30;99.90;;;5.55;100.00;96416.69;5028307;28;20442;-80
2021/12/02 04:10:41;;;;;;;1.93;0.87;;;5.30;99.90;;;5.51;100.00;96418.88;5026749;28;20503;-80
2021/12/02 04:13:16;;;;;;;0.77;0.77;;;5.10;99.90;;;5.55;100.00;96424.47;5018495;28;20458;-80
2021/12/02 04:15:50;;;;;;;0.80;0.77;;;5.00;99.90;;;5.57;100.00;96419.88;5045608;28;20967;-79
2021/12/02 04:18:19;;;;;;;0.70;0.70;;;5.00;99.90;;;5.59;100.00;96421.28;5031120;28;20507;-80
2021/12/02 04:20:47;;;;;;;0.70;0.70;;;5.10;99.90;;;5.57;100.00;96420.69;5038368;28;20449;-80
2021/12/02 04:23:16;;;;;;;0.70;0.67;;;5.10;99.90;;;5.56;100.00;96419.09;5035186;28;20481;-79
2021/12/02 04:25:45;;;;;;;1.03;0.70;;;4.90;99.90;;;5.53;100.00;96419.47;5034865;28;20481;-80
2021/12/02 04:28:15;;;;;;;0.70;0.60;;;4.90;99.90;;;5.54;100.00;96410.72;5046463;28;20503;-80
2021/12/02 04:30:44;;;;;;;3.27;0.80;;;4.90;99.90;;;5.54;100.00;96418.50;5047558;28;20494;-80
2021/12/02 04:33:12;;;;;;;0.80;0.80;;;4.80;99.90;;;5.54;100.00;96423.69;5023497;28;20462;-80
2021/12/02 04:35:41;;;;;;;0.70;0.70;;;4.90;99.90;;;5.54;100.00;96423.69;5017609;28;20499;-79
2021/12/02 04:38:10;;;;;;;0.70;0.70;;;4.80;99.90;;;5.55;100.00;96417.47;5022945;28;20470;-81
2021/12/02 04:40:41;;;;;;;1.90;1.03;;;4.80;99.90;;;5.55;100.00;96419.28;5022556;28;20481;-80
2021/12/02 04:43:09;;;;;;;2.40;0.80;;;4.80;99.90;;;5.53;100.00;96421.28;5041377;28;20445;-80
2021/12/02 04:45:39;;;;;;;2.40;0.80;;;4.90;99.90;;;5.53;100.00;96422.06;5026489;28;20548;-80
2021/12/02 04:48:08;;;;;;;1.70;1.47;;;4.80;99.90;;;5.51;100.00;96413.69;5025351;28;21018;-79
2021/12/02 04:50:37;;;;;;;7.30;0.90;;;4.80;99.90;;;5.53;100.00;96416.09;5025824;28;20473;-79
2021/12/02 04:53:05;;;;;;;0.70;0.60;;;4.70;99.90;;;5.50;100.00;96413.88;5036247;28;20458;-79
2021/12/02 04:55:34;;;;;;;1.07;0.70;;;4.80;99.90;;;5.53;100.00;96408.31;5024232;28;20493;-80
2021/12/02 04:58:02;;;;;;;1.03;0.80;;;4.70;99.90;;;5.53;100.00;96416.88;5029866;28;20463;-81
2021/12/02 05:00:31;;;;;;;1.47;0.93;;;4.80;99.90;;;5.52;100.00;96417.88;5021304;28;20872;-79
2021/12/02 05:03:03;;;;;;;0.87;0.73;;;4.80;99.90;;;5.50;100.00;96417.28;5027907;28;20511;-79
2021/12/02 05:05:33;;;;;;;1.03;0.73;;;4.80;99.90;;;5.51;100.00;96424.06;5026964;28;20490;-80
2021/12/02 05:08:03;;;;;;;0.80;0.80;;;4.70;99.90;;;5.49;100.00;96420.84;5017314;28;20459;-80
2021/12/02 05:10:32;;;;;;;2.10;0.80;;;4.70;99.90;;;5.48;100.00;96419.25;5023662;28;20447;-79
2021/12/02 05:13:01;;;;;;;0.90;0.70;;;4.70;99.90;;;5.50;100.00;96425.06;5025508;28;20458;-78
2021/12/02 05:15:29;;;;;;;1.43;0.80;;;4.80;99.90;;;5.49;100.00;96426.03;5035780;28;20639;-78
2021/12/02 05:17:58;;;;;;;0.90;0.80;;;4.90;99.90;;;5.48;100.00;96434.81;5046562;28;20495;-78
2021/12/02 05:20:28;;;;;;;0.70;0.70;;;4.80;99.90;;;5.48;100.00;96427.03;5034499;28;20453;-78
2021/12/02 05:22:57;;;;;;;0.80;0.70;;;4.80;99.90;;;5.49;100.00;96436.41;5044797;28;20489;-78
2021/12/02 05:25:25;;;;;;;1.00;0.90;;;4.90;99.90;;;5.49;100.00;96427.84;5025551;28;20443;-78
2021/12/02 05:27:54;;;;;;;2.60;1.03;;;4.90;99.90;;;5.48;100.00;96419.25;5033223;28;20946;-78
2021/12/02 05:30:22;;;;;;;0.80;0.80;;;5.00;99.90;;;5.45;100.00;96430.00;5036610;28;20461;-80
2021/12/02 05:32:51;;;;;;;3.63;1.60;;;5.00;99.90;;;5.42;100.00;96430.41;5040453;28;20458;-78
2021/12/02 05:35:19;;;;;;;2.40;1.43;;;4.90;99.90;;;5.43;100.00;96426.84;5046610;28;20876;-77
2021/12/02 05:37:49;;;;;;;1.30;1.03;;;4.90;99.90;;;5.41;100.00;96435.81;5045349;28;20481;-79
2021/12/02 05:40:17;;;;;;;1.03;0.93;;;4.90;99.90;;;5.37;100.00;96443.16;5043373;28;20465;-79
2021/12/02 05:42:46;;;;;;;1.00;0.90;;;4.80;99.90;;;5.34;100.00;96442.75;5032770;28;20943;-79
2021/12/02 05:45:14;;;;;;;1.10;1.00;;;4.80;99.90;;;5.31;100.00;96446.50;5022074;28;20467;-78
2021/12/02 05:47:43;;;;;;;4.00;0.90;;;4.90;99.90;;;5.26;100.00;96448.09;5018717;28;20641;-78
2021/12/02 05:50:11;;;;;;;4.03;0.90;;;4.80;99.90;;;5.20;100.00;96452.25;5024048;28;20927;-79
2021/12/02 05:52:40;;;;;;;0.90;0.90;;;4.70;99.90;;;5.17;100.00;96457.84;5024693;28;20450;-79
2021/12/02 05:55:10;;;;;;;0.80;0.80;;;4.50;99.90;;;5.20;100.00;96447.09;5025527;28;20443;-78
2021/12/02 05:57:39;;;;;;;1.00;0.80;;;4.60;99.90;;;5.26;100.00;96451.47;5036930;28;20450;-79
2021/12/02 06:00:09;;;;;;;0.90;0.90;;;4.60;99.90;;;5.30;100.00;96452.69;5021467;28;20451;-79
2021/12/02 06:02:38;;;;;;;1.93;1.00;;;4.70;99.90;;;5.30;100.00;96462.25;5016314;28;20483;-79
2021/12/02 06:05:08;;;;;;;0.80;0.80;;;4.70;99.90;;;5.27;100.00;96462.66;5022612;28;20542;-79
2021/12/02 06:07:37;;;;;;;1.60;0.90;;;4.60;99.90;;;5.23;100.00;96462.25;5030154;28;20549;-79
2021/12/02 06:10:09;;;;;;;0.83;0.83;;;4.50;99.90;;;5.26;100.00;96469.63;5023288;28;20453;-79
2021/12/02 06:12:37;;;;;;;0.70;0.70;;;4.70;99.90;;;5.25;100.00;96473.19;5032739;28;20950;-78
2021/12/02 06:15:08;;;;;;;0.90;0.90;;;4.70;99.90;;;5.29;100.00;96471.81;5022203;28;20458;-78
2021/12/02 06:17:37;;;;;;;0.80;0.80;;;4.70;99.90;;;5.28;100.00;96470.22;5026691;28;20452;-78
2021/12/02 06:20:08;;;;;;;2.50;1.00;;;4.80;99.90;;;5.31;100.00;96471.66;5038064;28;20507;-78
2021/12/02 06:22:38;;;;;;;1.30;1.20;;;4.80;99.90;;;5.28;100.00;96470.22;5028097;28;20484;-78
2021/12/02 06:27:55;;;;;;;0.90;0.80;;;4.70;99.90;;;5.21;100.00;96464.22;5040868;28;20492;-79
2021/12/02 06:30:26;;;;;;;1.20;1.10;;;4.70;99.90;;;5.17;100.00;96465.59;5033852;28;20552;-79
2021/12/02 06:32:54;;;;;;;1.00;1.00;;;4.60;99.90;;;5.22;100.00;96471.00;5042117;28;20523;-78
2021/12/02 06:35:23;;;;;;;0.90;0.90;;;4.70;99.90;;;5.21;100.00;96471.97;5038208;28;20457;-78
2021/12/02 06:37:52;;;;;;;2.13;1.30;;;4.60;99.90;;;5.22;100.00;96486.53;5042856;28;20449;-79
2021/12/02 06:40:22;;;;;;;3.93;1.00;;;4.70;99.90;;;5.23;100.00;96485.56;5036628;28;20462;-78
2021/12/02 06:42:51;;;;;;;6.83;1.00;;;4.70;99.90;;;5.21;100.00;96484.13;5038253;28;20446;-78
2021/12/02 06:45:20;;;;;;;1.60;1.00;;;4.60;99.90;;;5.20;100.00;96488.53;5048472;28;20892;-78
2021/12/02 06:47:50;;;;;;;0.77;0.77;;;4.70;99.90;;;5.08;100.00;96496.03;5045713;28;20576;-79
2021/12/02 06:50:21;;;;;;;0.90;0.90;;;4.50;99.90;;;5.03;100.00;96492.44;5044865;28;20453;-78
2021/12/02 06:52:52;;;;;;;1.93;1.00;;;4.40;99.90;;;5.02;100.00;96498.59;5037621;28;20438;-78
2021/12/02 06:55:23;;;;;;;1.00;0.90;;;4.50;99.90;;;5.01;100.00;96496.97;5043096;28;20433;-79
2021/12/02 06:57:52;;;;;;;1.00;0.80;;;4.50;99.90;;;5.01;100.00;96495.19;5041324;28;20894;-79
2021/12/02 07:00:22;;;;;;;3.63;1.00;;;4.40;99.90;;;5.01;100.00;96497.78;5041610;28;20459;-79
2021/12/02 07:02:53;;;;;;;1.53;1.00;;;4.40;99.90;;;5.04;100.00;96494.00;5047789;28;20498;-79
2021/12/02 07:05:25;;;;;;;1.80;0.80;;;4.50;99.90;;;5.05;100.00;96499.00;5035379;28;20439;-79
2021/12/02 07:07:53;;;;;;;1.00;0.90;;;4.50;99.90;;;5.05;100.00;96487.84;5037494;28;20493;-78
2021/12/02 07:10:25;;;;;;;2.23;1.10;;;4.40;99.90;;;5.10;100.00;96498.44;5041648;28;20462;-79
2021/12/02 07:12:57;;;;;;;1.47;0.93;;;4.40;99.90;;;5.00;100.00;96498.78;5041264;28;20479;-79
2021/12/02 07:15:30;;;;;;;1.33;1.03;;;4.30;99.90;;;5.00;100.00;96508.31;5040517;28;20441;-79
2021/12/02 07:18:00;;;;;;;1.73;0.90;;;4.20;99.90;;;4.98;100.00;96511.13;5031902;28;20563;-79
2021/12/02 07:20:34;;;;;;;1.00;0.90;;;4.30;99.90;;;4.91;100.00;96515.47;5040608;28;20493;-79
2021/12/02 07:23:04;;;;;;;1.17;0.93;;;4.10;99.90;;;4.86;100.00;96519.63;5035888;28;20475;-78
2021/12/02 07:25:34;;;;;;;1.83;1.03;;;4.20;99.90;;;4.88;100.00;96526.19;5039512;28;20461;-78
2021/12/02 07:28:04;;;;;;;1.40;1.00;;;4.20;99.90;;;4.90;100.00;96520.81;5030457;28;20519;-78
2021/12/02 07:30:32;;;;;;;1.00;1.00;;;4.30;99.90;;;4.91;100.00;96520.63;5037939;28;20498;-78
2021/12/02 07:33:03;;;;;;;2.60;1.00;;;4.20;99.90;;;4.89;100.00;96527.00;5032756;28;20524;-79
2021/12/02 07:35:32;;;;;;;5.70;1.60;;;4.20;99.90;;;4.92;100.00;96532.59;5045983;28;20739;-78
2021/12/02 07:38:04;;;;;;;2.13;1.17;;;4.20;99.90;;;4.91;100.00;96532.78;5038888;28;20460;-79
2021/12/02 07:40:41;;;;;;;1.10;1.00;;;4.20;99.90;;;4.89;100.00;96543.34;5037959;28;20815;-78
2021/12/02 07:43:09;;;;;;;1.10;1.00;;;4.10;99.90;;;4.91;100.00;96543.94;5031816;28;20449;-79
2021/12/02 07:45:39;;;;;;;1.80;1.20;;;4.20;99.90;;;4.95;100.00;96542.59;5047126;28;20469;-78
2021/12/02 07:48:09;;;;;;;1.10;0.87;;;4.20;99.90;;;4.92;100.00;96536.97;5045397;28;20664;-78
2021/12/02 07:50:38;;;;;;;1.53;1.00;;;4.20;99.90;;;4.95;100.00;96531.41;5046208;28;20452;-78
2021/12/02 07:53:09;;;;;;;1.20;1.10;;;4.30;99.90;;;4.92;100.00;96539.56;5038325;28;20441;-78
2021/12/02 07:55:41;;;;;;;1.20;1.10;;;4.30;99.90;;;4.88;100.00;96539.16;5039814;28;20446;-78
2021/12/02 07:58:11;;;;;;;2.23;1.00;;;4.10;99.90;;;4.91;100.00;96536.19;5030004;28;20470;-79
2021/12/02 08:00:40;;;;;;;2.10;1.10;;;4.10;99.90;;;4.93;100.00;96543.75;5032359;28;20466;-78
2021/12/02 08:03:12;;;;;;;2.90;1.20;;;4.20;99.90;;;4.86;100.00;96535.94;5047464;28;20450;-78
2021/12/02 08:05:42;;;;;;;1.10;1.00;;;4.20;99.90;;;4.82;100.00;96552.03;5035434;28;20534;-79
2021/12/02 08:08:12;;;;;;;1.07;0.90;;;4.10;99.90;;;4.81;100.00;96555.63;5046879;28;20493;-79
2021/12/02 08:10:42;;;;;;;2.70;1.50;;;4.00;99.90;;;4.79;100.00;96552.44;5041104;28;20526;-78
2021/12/02 08:13:10;;;;;;;1.33;1.10;;;4.00;99.90;;;4.80;100.00;96559.19;5039929;28;21015;-78
2021/12/02 08:15:39;;;;;;;1.33;1.13;;;4.10;99.90;;;4.80;100.00;96572.13;5030328;28;20476;-79
2021/12/02 08:18:08;;;;;;;4.43;1.20;;;4.20;99.90;;;4.84;100.00;96579.34;5031011;28;20520;-78
2021/12/02 08:20:37;;;;;;;1.70;1.20;;;4.20;99.90;;;4.83;100.00;96575.16;5043828;28;20468;-78
2021/12/02 08:23:06;;;;;;;1.90;1.00;;;4.20;99.90;;;4.87;100.00;96570.41;5036859;28;20907;-79
2021/12/02 08:25:35;;;;;;;1.00;0.90;;;4.30;99.90;;;4.85;100.00;96569.78;5046776;28;20458;-78
2021/12/02 08:28:06;;;;;;;4.30;1.47;;;4.10;99.90;;;4.82;100.00;96563.22;5044363;28;20990;-78
2021/12/02 08:30:37;;;;;;;4.43;1.50;;;4.20;99.90;;;4.71;100.00;96568.09;5041062;28;20498;-78
2021/12/02 08:33:08;;;;;;;1.33;1.20;;;4.00;99.90;;;4.77;100.00;96573.31;5040602;28;20496;-78
2021/12/02 08:35:37;;;;;;;1.40;1.20;;;4.10;99.90;;;4.73;100.00;96568.69;5042116;28;20479;-78
2021/12/02 08:38:09;;;;;;;9.27;1.60;;;4.10;99.90;;;4.73;100.00;96574.66;5042238;28;20543;-79
2021/12/02 08:40:39;;;;;;;1.23;1.10;;;4.10;99.90;;;4.75;100.00;96587.44;5046665;28;20491;-78
2021/12/02 08:43:12;;;;;;;1.23;1.13;;;4.20;99.90;;;4.77;100.00;96585.44;5043655;28;20884;-79
2021/12/02 08:45:43;;;;;;;4.00;1.20;;;4.20;99.90;;;4.81;100.00;96587.50;5044817;28;20528;-78
2021/12/02 08:48:13;;;;;;;2.30;1.50;;;4.10;99.90;;;4.79;100.00;96584.28;5046681;28;20499;-78
2021/12/02 08:50:44;;;;;;;3.60;1.20;;;4.20;99.90;;;4.81;100.00;96586.69;5039684;28;20475;-78
2021/12/02 08:53:13;;;;;;;3.80;1.70;;;4.10;99.90;;;4.85;100.00;96593.09;5042218;28;20444;-78
2021/12/02 08:55:43;;;;;;;1.60;1.10;;;4.20;99.90;;;4.82;100.00;96593.47;5045921;28;20448;-79
2021/12/02 08:58:13;;;;;;;1.87;1.27;;;4.30;99.90;;;4.77;100.00;96595.81;5049763;28;20453;-79
2021/12/02 09:00:43;;;;;;;2.23;1.30;;;4.40;99.90;;;4.70;100.00;96592.38;5044576;28;20531;-78
2021/12/02 09:03:16;;;;;;;8.90;1.60;;;4.30;99.90;;;4.73;100.00;96592.00;5043084;28;20452;-78
2021/12/02 09:05:45;;;;;;;6.13;1.40;;;4.30;99.90;;;4.78;100.00;96597.41;5032265;28;20461;-78
2021/12/02 09:08:15;;;;;;;1.30;1.20;;;4.20;99.90;;;4.81;100.00;96602.22;5047885;28;20497;-78
2021/12/02 09:10:44;;;;;;;1.47;1.00;;;4.20;99.90;;;4.82;100.00;96606.44;5043833;28;20453;-78
2021/12/02 09:13:15;;;;;;;1.43;1.33;;;4.10;99.90;;;4.83;100.00;96593.28;5041554;28;20461;-78
2021/12/02 09:15:44;;;;;;;2.50;1.30;;;4.10;99.90;;;4.87;100.00;96597.09;5041914;28;20472;-78
2021/12/02 09:18:13;;;;;;;2.20;1.20;;;4.20;99.90;;;4.83;100.00;96605.41;5033889;28;20466;-79
2021/12/02 09:20:51;;;;;;;1.57;1.30;;;4.30;99.90;;;4.78;100.00;96607.78;5047153;28;20821;-79
2021/12/02 09:23:20;;;;;;;2.97;1.23;;;4.20;99.90;;;4.76;100.00;96609.75;5031753;28;20481;-78
2021/12/02 09:25:48;;;;;;;4.53;1.40;;;4.20;99.90;;;4.75;100.00;96613.34;5045671;28;20488;-78
2021/12/02 09:28:18;;;;;;;2.60;1.50;;;4.10;99.90;;;4.82;100.00;96619.38;5034262;28;20547;-78
2021/12/02 09:30:48;;;;;;;3.00;1.20;;;4.30;99.90;;;4.85;100.00;96619.81;5039369;28;20494;-79
2021/12/02 09:33:17;;;;;;;2.50;1.00;;;4.30;99.90;;;4.84;100.00;96623.38;5035803;28;20511;-79
2021/12/02 09:35:46;;;;;;;3.43;1.00;;;4.20;99.90;;;4.87;100.00;96622.19;5041232;28;20445;-78
2021/12/02 09:38:15;;;;;;;1.80;1.10;;;4.30;99.90;;;4.92;100.00;96622.44;5040748;28;20506;-78
2021/12/02 09:40:44;;;;;;;1.10;1.00;;;4.40;99.90;;;4.93;100.00;96621.44;5034181;28;20474;-79
2021/12/02 09:43:14;;;;;;;2.30;1.10;;;4.40;99.90;;;4.97;100.00;96627.84;5035009;28;20562;-79
2021/12/02 09:45:45;;;;;;;1.20;1.10;;;4.50;99.90;;;4.97;100.00;96633.03;5046370;28;20481;-78
2021/12/02 09:48:14;;;;;;;1.70;1.10;;;4.40;99.90;;;4.99;100.00;96628.47;5044658;28;20504;-78
2021/12/02 09:50:57;;;;;;;1.50;1.03;;;4.50;99.90;;;4.93;100.00;96642.97;5044505;28;20453;-78
2021/12/02 09:53:37;;;;;;;3.13;1.60;;;4.40;99.90;;;4.86;100.00;96625.78;5033150;28;20476;-78
2021/12/02 09:56:15;;;;;;;1.37;1.27;;;4.20;99.90;;;4.94;100.00;96633.41;5039848;28;20979;-78
2021/12/02 09:58:44;;;;;;;1.10;1.00;;;4.40;99.90;;;4.97;100.00;96627.84;5027644;28;20450;-79
2021/12/02 10:01:17;;;;;;;2.50;1.10;;;4.40;99.90;;;4.95;100.00;96633.22;5044157;28;20506;-78
2021/12/02 10:03:47;;;;;;;1.93;1.23;;;4.50;99.90;;;4.88;100.00;96634.16;5042144;28;20523;-79
2021/12/02 10:06:25;;;;;;;1.10;1.00;;;4.30;99.90;;;4.91;100.00;96636.38;5038042;28;20457;-78
2021/12/02 10:08:57;;;;;;;2.60;1.00;;;4.30;99.90;;;4.93;100.00;96636.97;5041656;28;21041;-78
2021/12/02 10:11:34;;;;;;;1.07;0.97;;;4.30;99.90;;;4.94;100.00;96633.41;5040357;28;20484;-79
2021/12/02 10:14:21;;;;;;;1.10;1.00;;;4.40;99.90;;;4.92;100.00;96630.22;5031793;28;20502;-79
2021/12/02 10:17:07;;;;;;;1.10;0.90;;;4.40;99.90;;;4.94;100.00;96633.41;5034536;28;20535;-78
2021/12/02 10:19:35;;;;;;;1.97;1.00;;;4.30;99.90;;;4.89;100.00;96640.94;5031267;28;20869;-78
2021/12/02 10:22:08;;;;;;;1.43;1.20;;;4.40;99.90;;;4.92;100.00;96640.56;5038612;28;20457;-79
2021/12/02 10:24:44;;;;;;;1.23;1.13;;;4.30;99.90;;;4.90;100.00;96630.38;5042712;28;20538;-78
2021/12/02 10:27:12;;;;;;;0.77;0.70;;;4.30;99.90;;;4.89;100.00;96621.03;5040923;28;20523;-78
2021/12/02 10:29:47;;;;;;;1.20;0.80;;;4.40;99.90;;;4.87;100.00;96632.53;5031487;28;20494;-78
2021/12/02 10:32:22;;;;;;;0.80;0.80;;;4.30;99.90;;;4.88;100.00;96626.38;5033879;28;20499;-79
2021/12/02 10:34:55;;;;;;;0.90;0.90;;;4.40;99.90;;;4.94;100.00;96628.22;5040916;28;20538;-78
2021/12/02 10:37:28;;;;;;;1.23;0.80;;;4.50;99.90;;;5.01;100.00;96631.66;5043508;28;20453;-78
2021/12/02 10:40:01;;;;;;;1.50;0.90;;;4.40;99.90;;;5.01;100.00;96634.25;5043635;28;20536;-78
2021/12/02 10:42:33;;;;;;;1.00;0.90;;;4.50;99.90;;;4.91;100.00;96644.13;5041104;28;20457;-78
2021/12/02 10:45:06;;;;;;;0.80;0.80;;;4.40;99.90;;;4.94;100.00;96633.41;5043229;28;20458;-78
2021/12/02 10:47:36;;;;;;;1.80;0.90;;;4.50;99.90;;;4.89;100.00;96628.81;5035237;28;20495;-78
2021/12/02 10:50:11;;;;;;;2.30;0.93;;;4.50;99.90;;;4.95;100.00;96635.81;5046718;28;20900;-78